createdAt,value
2018-12-16T00:02:25.162Z,20.40
2018-12-16T00:05:31.891Z,20.40
2018-12-16T00:08:37.074Z,20.50
2018-12-16T00:11:41.715Z,20.50
2018-12-16T00:14:46.410Z,20.40
2018-12-16T00:17:51.069Z,20.40
2018-12-16T00:20:55.674Z,20.40
2018-12-16T00:24:00.329Z,20.40
2018-12-16T00:27:11.575Z,20.30
2018-12-16T00:30:16.152Z,20.40
2018-12-16T00:33:20.743Z,20.40
2018-12-16T00:36:25.504Z,20.30
2018-12-16T00:39:30.094Z,20.30
2018-12-16T00:42:34.966Z,20.30
2018-12-16T00:45:39.543Z,20.30
2018-12-16T00:48:44.108Z,20.30
2018-12-16T00:51:48.600Z,20.30
2018-12-16T00:54:53.182Z,20.20
2018-12-16T00:57:57.751Z,20.30
2018-12-16T01:01:02.310Z,20.30
2018-12-16T01:04:06.829Z,20.30
2018-12-16T01:07:11.682Z,20.20
2018-12-16T01:10:16.610Z,20.20
2018-12-16T01:13:21.246Z,20.20
2018-12-16T01:16:25.953Z,20.20
2018-12-16T01:19:30.914Z,20.20
2018-12-16T01:22:35.714Z,20.20
2018-12-16T01:25:40.270Z,20.20
2018-12-16T01:28:44.878Z,20.10
2018-12-16T01:31:49.442Z,20.10
2018-12-16T01:34:54.025Z,20.10
2018-12-16T01:37:58.585Z,20.10
2018-12-16T01:41:03.220Z,20.10
2018-12-16T01:44:08.011Z,20.10
2018-12-16T01:47:12.535Z,20.10
2018-12-16T01:50:17.090Z,20.10
2018-12-16T01:53:21.679Z,20.10
2018-12-16T01:56:26.269Z,20.10
2018-12-16T01:59:30.842Z,20.10
2018-12-16T02:02:35.403Z,20.00
2018-12-16T02:05:40.004Z,20.00
2018-12-16T02:08:44.555Z,19.90
2018-12-16T02:11:49.149Z,19.90
2018-12-16T02:14:53.714Z,19.80
2018-12-16T02:17:58.302Z,19.80
2018-12-16T02:21:02.904Z,19.80
2018-12-16T02:24:07.469Z,19.70
2018-12-16T02:27:12.018Z,19.70
2018-12-16T02:30:32.849Z,19.70
2018-12-16T02:33:37.419Z,19.60
2018-12-16T02:36:41.947Z,19.60
2018-12-16T02:39:46.478Z,19.60
2018-12-16T02:42:50.997Z,19.60
2018-12-16T02:45:55.533Z,19.60
2018-12-16T02:49:00.055Z,19.50
2018-12-16T02:52:04.599Z,19.50
2018-12-16T02:55:09.126Z,19.50
2018-12-16T02:58:14.298Z,19.50
2018-12-16T03:01:18.894Z,19.50
2018-12-16T03:04:23.827Z,19.50
2018-12-16T03:07:28.197Z,19.40
2018-12-16T03:10:32.758Z,19.40
2018-12-16T03:13:37.296Z,19.40
2018-12-16T03:16:41.977Z,19.40
2018-12-16T03:19:46.815Z,19.30
2018-12-16T03:22:51.380Z,19.30
2018-12-16T03:25:55.902Z,19.30
2018-12-16T03:29:00.434Z,19.30
2018-12-16T03:32:04.960Z,19.30
2018-12-16T03:35:09.493Z,19.20
2018-12-16T03:38:14.246Z,19.20
2018-12-16T03:41:18.754Z,19.20
2018-12-16T03:44:23.283Z,19.20
2018-12-16T03:47:28.006Z,19.20
2018-12-16T03:50:32.605Z,19.20
2018-12-16T03:53:37.122Z,19.10
2018-12-16T03:56:41.645Z,19.10
2018-12-16T03:59:46.190Z,19.10
2018-12-16T04:02:50.704Z,19.10
2018-12-16T04:05:55.227Z,19.10
2018-12-16T04:08:59.753Z,19.10
2018-12-16T04:12:04.279Z,19.00
2018-12-16T04:15:09.070Z,19.00
2018-12-16T04:18:13.662Z,19.00
2018-12-16T04:21:18.646Z,19.00
2018-12-16T04:24:23.318Z,19.00
2018-12-16T04:27:27.836Z,19.00
2018-12-16T04:30:32.360Z,19.00
2018-12-16T04:33:36.897Z,19.00
2018-12-16T04:36:41.426Z,19.00
2018-12-16T04:39:45.948Z,18.90
2018-12-16T04:42:50.485Z,18.90
2018-12-16T04:45:55.007Z,18.90
2018-12-16T04:48:59.527Z,18.90
2018-12-16T04:52:04.082Z,18.90
2018-12-16T04:55:09.714Z,18.90
2018-12-16T04:58:14.225Z,18.90
2018-12-16T05:01:18.762Z,18.90
2018-12-16T05:04:23.290Z,18.80
2018-12-16T05:07:27.797Z,18.80
2018-12-16T05:10:32.653Z,18.80
2018-12-16T05:13:37.174Z,18.90
2018-12-16T05:16:41.704Z,18.80
2018-12-16T05:19:46.208Z,18.80
2018-12-16T05:22:51.090Z,18.80
2018-12-16T05:25:55.697Z,18.80
2018-12-16T05:29:00.198Z,18.80
2018-12-16T05:32:04.742Z,18.70
2018-12-16T05:35:09.465Z,18.70
2018-12-16T05:38:13.985Z,18.70
2018-12-16T05:41:18.509Z,18.70
2018-12-16T05:44:23.053Z,18.70
2018-12-16T05:47:27.562Z,18.70
2018-12-16T05:50:32.105Z,18.70
2018-12-16T05:53:36.613Z,18.70
2018-12-16T05:56:41.138Z,18.60
2018-12-16T05:59:45.669Z,18.60
2018-12-16T06:02:50.197Z,18.60
2018-12-16T06:05:54.734Z,18.70
2018-12-16T06:08:59.261Z,18.70
2018-12-16T06:12:03.789Z,18.70
2018-12-16T06:15:08.314Z,18.70
2018-12-16T06:18:13.233Z,18.70
2018-12-16T06:21:17.774Z,18.70
2018-12-16T06:24:22.297Z,18.70
2018-12-16T06:27:26.814Z,18.70
2018-12-16T06:30:34.321Z,18.70
2018-12-16T06:33:38.981Z,18.80
2018-12-16T06:36:43.581Z,18.80
2018-12-16T06:39:48.753Z,18.90
2018-12-16T06:42:53.341Z,18.90
2018-12-16T06:45:57.915Z,18.90
2018-12-16T06:49:03.513Z,19.00
2018-12-16T06:52:08.038Z,19.00
2018-12-16T06:55:12.577Z,19.10
2018-12-16T06:58:17.090Z,19.10
2018-12-16T07:01:21.619Z,19.20
2018-12-16T07:04:26.162Z,19.20
2018-12-16T07:07:30.924Z,19.20
2018-12-16T07:10:35.555Z,19.30
2018-12-16T07:13:40.181Z,19.30
2018-12-16T07:16:44.765Z,19.30
2018-12-16T07:19:49.334Z,19.30
2018-12-16T07:22:53.923Z,19.40
2018-12-16T07:25:58.554Z,19.40
2018-12-16T07:29:03.120Z,19.40
2018-12-16T07:32:07.850Z,19.40
2018-12-16T07:35:12.360Z,19.40
2018-12-16T07:38:16.940Z,19.50
2018-12-16T07:41:21.494Z,19.50
2018-12-16T07:44:26.157Z,19.50
2018-12-16T07:47:30.761Z,19.60
2018-12-16T07:50:35.326Z,19.60
2018-12-16T07:53:39.910Z,19.60
2018-12-16T07:56:44.465Z,19.60
2018-12-16T07:59:49.073Z,19.60
2018-12-16T08:02:53.613Z,19.60
2018-12-16T08:05:58.222Z,19.70
2018-12-16T08:09:03.125Z,19.70
2018-12-16T08:12:08.814Z,19.70
2018-12-16T08:15:13.319Z,19.70
2018-12-16T08:18:17.864Z,19.70
2018-12-16T08:21:22.426Z,19.80
2018-12-16T08:24:27.022Z,19.80
2018-12-16T08:27:31.884Z,19.80
2018-12-16T08:30:36.483Z,19.80
2018-12-16T08:33:41.022Z,19.80
2018-12-16T08:36:45.621Z,19.90
2018-12-16T08:39:50.177Z,19.90
2018-12-16T08:42:55.594Z,20.00
2018-12-16T08:46:00.160Z,20.10
2018-12-16T08:49:04.649Z,20.10
2018-12-16T08:52:09.222Z,20.10
2018-12-16T08:55:13.802Z,20.20
2018-12-16T08:58:18.405Z,20.40
2018-12-16T09:01:22.973Z,20.50
2018-12-16T09:04:27.542Z,20.60
2018-12-16T09:07:37.285Z,20.80
2018-12-16T09:10:38.734Z,20.80
2018-12-16T09:13:43.337Z,21.00
2018-12-16T09:16:47.994Z,21.10
2018-12-16T09:19:52.573Z,21.40
2018-12-16T09:22:57.134Z,21.50
2018-12-16T09:26:01.745Z,21.30
2018-12-16T09:29:06.614Z,21.00
2018-12-16T09:32:11.195Z,20.80
2018-12-16T09:35:15.750Z,20.70
2018-12-16T09:38:20.258Z,20.60
2018-12-16T09:41:25.033Z,20.60
2018-12-16T09:44:29.625Z,20.60
2018-12-16T09:47:34.682Z,20.50
2018-12-16T09:50:39.571Z,20.50
2018-12-16T09:53:44.149Z,20.60
2018-12-16T09:56:48.693Z,20.60
2018-12-16T09:59:53.610Z,20.60
2018-12-16T10:02:58.129Z,20.60
2018-12-16T10:06:02.686Z,20.60
2018-12-16T10:09:09.033Z,20.60
2018-12-16T10:12:13.554Z,20.60
2018-12-16T10:15:18.074Z,20.60
2018-12-16T10:18:22.629Z,20.60
2018-12-16T10:21:27.294Z,20.60
2018-12-16T10:24:31.966Z,20.60
2018-12-16T10:27:36.486Z,20.70
2018-12-16T10:30:41.015Z,20.60
2018-12-16T10:33:45.632Z,20.60
2018-12-16T10:36:50.278Z,20.70
2018-12-16T10:39:54.802Z,20.70
2018-12-16T10:42:59.345Z,20.70
2018-12-16T10:46:04.136Z,20.70
2018-12-16T10:49:08.706Z,20.70
2018-12-16T10:52:13.217Z,20.70
2018-12-16T10:55:17.757Z,20.70
2018-12-16T10:58:22.294Z,20.70
2018-12-16T11:01:29.002Z,20.70
2018-12-16T11:04:33.599Z,20.70
2018-12-16T11:07:38.114Z,20.70
2018-12-16T11:10:42.898Z,20.70
2018-12-16T11:13:47.466Z,20.70
2018-12-16T11:16:51.994Z,20.70
2018-12-16T11:19:56.501Z,20.70
2018-12-16T11:23:01.035Z,20.70
2018-12-16T11:26:05.949Z,20.80
2018-12-16T11:29:10.497Z,20.80
2018-12-16T11:32:15.482Z,20.80
2018-12-16T11:35:20.090Z,20.80
2018-12-16T11:38:24.602Z,20.80
2018-12-16T11:41:29.129Z,20.80
2018-12-16T11:44:33.659Z,20.70
2018-12-16T11:47:38.166Z,20.80
2018-12-16T11:50:42.698Z,20.80
2018-12-16T11:53:47.228Z,20.80
2018-12-16T11:56:51.746Z,20.80
2018-12-16T11:59:56.273Z,20.80
2018-12-16T12:03:00.797Z,20.80
2018-12-16T12:06:07.389Z,20.90
2018-12-16T12:09:11.897Z,20.90
2018-12-16T12:12:16.437Z,20.80
2018-12-16T12:15:21.058Z,20.90
2018-12-16T12:18:25.603Z,20.90
2018-12-16T12:21:30.217Z,20.90
2018-12-16T12:24:34.786Z,20.80
2018-12-16T12:27:39.366Z,20.90
2018-12-16T12:30:43.893Z,20.90
2018-12-16T12:33:48.414Z,20.90
2018-12-16T12:36:52.945Z,20.90
2018-12-16T12:39:57.478Z,20.90
2018-12-16T12:43:02.005Z,20.90
2018-12-16T12:46:06.528Z,20.90
2018-12-16T12:49:11.043Z,20.90
2018-12-16T12:52:15.574Z,20.90
2018-12-16T12:55:26.609Z,20.90
2018-12-16T12:58:26.690Z,20.90
2018-12-16T13:01:31.222Z,21.00
2018-12-16T13:04:36.241Z,20.90
2018-12-16T13:07:40.790Z,21.00
2018-12-16T13:10:45.582Z,21.00
2018-12-16T13:13:50.138Z,21.00
2018-12-16T13:16:54.690Z,21.00
2018-12-16T13:19:59.355Z,21.00
2018-12-16T13:23:03.918Z,21.00
2018-12-16T13:26:09.750Z,21.00
2018-12-16T13:29:14.299Z,21.00
2018-12-16T13:32:18.826Z,21.00
2018-12-16T13:35:23.349Z,21.00
2018-12-16T13:38:27.873Z,21.00
2018-12-16T13:41:32.418Z,21.00
2018-12-16T13:44:38.016Z,21.00
2018-12-16T13:47:42.577Z,21.00
2018-12-16T13:50:47.098Z,21.00
2018-12-16T13:53:51.650Z,21.00
2018-12-16T13:56:56.270Z,21.00
2018-12-16T14:00:00.809Z,21.10
2018-12-16T14:03:05.331Z,21.00
2018-12-16T14:06:09.857Z,21.00
2018-12-16T14:09:15.239Z,21.10
2018-12-16T14:12:19.819Z,21.10
2018-12-16T14:15:24.499Z,21.10
2018-12-16T14:18:50.674Z,21.10
2018-12-16T14:21:55.216Z,21.10
2018-12-16T14:24:59.728Z,21.10
2018-12-16T14:28:04.267Z,21.10
2018-12-16T14:31:08.792Z,21.10
2018-12-16T14:34:13.542Z,21.10
2018-12-16T14:37:18.431Z,21.10
2018-12-16T14:40:23.229Z,21.10
2018-12-16T14:43:27.817Z,21.10
2018-12-16T14:46:32.463Z,21.10
2018-12-16T14:49:36.966Z,21.10
2018-12-16T14:52:42.381Z,21.10
2018-12-16T14:55:47.162Z,21.10
2018-12-16T14:58:52.021Z,21.20
2018-12-16T15:01:56.606Z,21.20
2018-12-16T15:05:02.176Z,21.20
2018-12-16T15:08:07.179Z,21.20
2018-12-16T15:11:11.752Z,21.20
2018-12-16T15:14:16.380Z,21.20
2018-12-16T15:17:21.429Z,21.20
2018-12-16T15:20:26.041Z,21.20
2018-12-16T15:23:30.548Z,21.20
2018-12-16T15:26:35.086Z,21.20
2018-12-16T15:29:39.611Z,21.20
2018-12-16T15:32:45.163Z,21.20
2018-12-16T15:35:49.934Z,21.20
2018-12-16T15:38:54.522Z,21.20
2018-12-16T15:41:59.260Z,21.20
2018-12-16T15:45:03.973Z,21.30
2018-12-16T15:48:09.165Z,21.30
2018-12-16T15:51:13.774Z,21.20
2018-12-16T15:54:18.325Z,21.30
2018-12-16T15:57:22.825Z,21.30
2018-12-16T16:00:27.363Z,21.30
2018-12-16T16:03:31.882Z,21.30
2018-12-16T16:06:36.430Z,21.30
2018-12-16T16:09:40.954Z,21.30
2018-12-16T16:12:45.461Z,21.20
2018-12-16T16:15:50.005Z,21.30
2018-12-16T16:18:54.537Z,21.30
2018-12-16T16:21:59.145Z,21.20
2018-12-16T16:25:03.792Z,21.30
2018-12-16T16:28:08.305Z,21.30
2018-12-16T16:31:12.844Z,21.30
2018-12-16T16:34:17.385Z,21.30
2018-12-16T16:37:21.887Z,21.30
2018-12-16T16:40:26.785Z,21.30
2018-12-16T16:43:31.361Z,21.30
2018-12-16T16:46:35.981Z,21.30
2018-12-16T16:49:40.632Z,21.30
2018-12-16T16:52:45.334Z,21.20
2018-12-16T16:55:49.925Z,21.30
2018-12-16T16:58:54.497Z,21.20
2018-12-16T17:01:59.049Z,21.30
2018-12-16T17:05:03.651Z,21.20
2018-12-16T17:08:08.198Z,21.20
2018-12-16T17:11:12.826Z,21.20
2018-12-16T17:14:17.393Z,21.30
2018-12-16T17:17:21.956Z,21.20
2018-12-16T17:20:26.606Z,21.20
2018-12-16T17:23:31.301Z,21.30
2018-12-16T17:26:35.921Z,21.30
2018-12-16T17:29:40.468Z,21.40
2018-12-16T17:32:45.229Z,21.40
2018-12-16T17:35:49.843Z,21.40
2018-12-16T17:38:54.603Z,21.40
2018-12-16T17:41:59.330Z,21.40
2018-12-16T17:45:04.169Z,21.40
2018-12-16T17:48:08.877Z,21.40
2018-12-16T17:51:13.625Z,21.40
2018-12-16T17:54:18.213Z,21.40
2018-12-16T17:57:22.788Z,21.40
2018-12-16T18:00:27.610Z,21.40
2018-12-16T18:03:32.149Z,21.50
2018-12-16T18:06:37.146Z,21.40
2018-12-16T18:09:41.904Z,21.40
2018-12-16T18:12:46.514Z,21.50
2018-12-16T18:15:51.334Z,21.40
2018-12-16T18:18:55.970Z,21.50
2018-12-16T18:22:01.410Z,21.50
2018-12-16T18:25:06.455Z,21.50
2018-12-16T18:28:11.073Z,21.50
2018-12-16T18:31:15.594Z,21.50
2018-12-16T18:34:20.169Z,21.50
2018-12-16T18:37:25.119Z,21.50
2018-12-16T18:40:29.761Z,21.50
2018-12-16T18:43:34.333Z,21.40
2018-12-16T18:46:38.893Z,21.50
2018-12-16T18:49:43.473Z,21.50
2018-12-16T18:52:48.257Z,21.50
2018-12-16T18:55:52.846Z,21.50
2018-12-16T18:58:57.385Z,21.50
2018-12-16T19:02:02.008Z,21.50
2018-12-16T19:05:06.680Z,21.50
2018-12-16T19:08:11.693Z,21.50
2018-12-16T19:11:16.225Z,21.50
2018-12-16T19:14:21.161Z,21.50
2018-12-16T19:17:25.725Z,21.50
2018-12-16T19:20:30.273Z,21.50
2018-12-16T19:23:34.826Z,21.50
2018-12-16T19:26:39.325Z,21.70
2018-12-16T19:29:43.887Z,21.70
2018-12-16T19:32:48.394Z,21.90
2018-12-16T19:35:52.901Z,22.10
2018-12-16T19:38:57.426Z,22.20
2018-12-16T19:42:01.974Z,22.20
2018-12-16T19:45:06.997Z,22.30
2018-12-16T19:48:11.529Z,22.40
2018-12-16T19:51:16.059Z,22.50
2018-12-16T19:54:20.838Z,22.60
2018-12-16T19:57:26.555Z,22.60
2018-12-16T20:00:31.062Z,22.60
2018-12-16T20:03:37.601Z,22.60
2018-12-16T20:06:44.497Z,22.60
2018-12-16T20:09:49.042Z,22.60
2018-12-16T20:12:53.569Z,22.60
2018-12-16T20:16:01.461Z,22.70
2018-12-16T20:19:05.585Z,22.60
2018-12-16T20:22:11.491Z,22.70
2018-12-16T20:25:16.769Z,22.60
2018-12-16T20:28:22.061Z,22.60
2018-12-16T20:31:26.782Z,22.60
2018-12-16T20:34:32.078Z,22.70
2018-12-16T20:37:38.181Z,22.60
2018-12-16T20:40:43.240Z,22.60
2018-12-16T20:43:48.366Z,22.60
2018-12-16T20:46:53.850Z,22.60
2018-12-16T20:50:00.020Z,22.60
2018-12-16T20:53:05.037Z,22.60
2018-12-16T20:56:10.076Z,22.60
2018-12-16T20:59:14.902Z,22.60
2018-12-16T21:02:19.661Z,22.60
2018-12-16T21:05:24.761Z,22.50
2018-12-16T21:08:29.520Z,22.50
2018-12-16T21:11:39.618Z,22.50
2018-12-16T21:14:49.698Z,22.40
2018-12-16T21:17:59.942Z,22.40
2018-12-16T21:21:05.716Z,22.20
2018-12-16T21:24:11.149Z,22.20
2018-12-16T21:27:16.662Z,22.10
2018-12-16T21:30:21.421Z,22.10
2018-12-16T21:33:26.210Z,22.00
2018-12-16T21:36:32.585Z,22.00
2018-12-16T21:39:38.406Z,21.90
2018-12-16T21:42:43.232Z,21.80
2018-12-16T21:45:48.681Z,21.80
2018-12-16T21:48:53.561Z,21.70
2018-12-16T21:51:58.884Z,21.70
2018-12-16T21:55:03.842Z,21.60
2018-12-16T21:58:09.462Z,21.60
2018-12-16T22:01:14.820Z,21.60
2018-12-16T22:04:20.249Z,21.60
2018-12-16T22:07:25.320Z,21.70
2018-12-16T22:10:29.995Z,21.50
2018-12-16T22:13:34.579Z,21.40
2018-12-16T22:16:39.097Z,21.30
2018-12-16T22:19:43.626Z,21.20
2018-12-16T22:22:48.155Z,21.00
2018-12-16T22:25:52.692Z,21.00
2018-12-16T22:28:57.226Z,21.00
2018-12-16T22:32:01.750Z,21.00
2018-12-16T22:35:06.787Z,21.00
2018-12-16T22:38:11.711Z,21.10
2018-12-16T22:41:16.234Z,21.10
2018-12-16T22:44:20.875Z,21.10
2018-12-16T22:47:25.385Z,21.10
2018-12-16T22:50:29.950Z,21.10
2018-12-16T22:53:34.448Z,21.10
2018-12-16T22:56:38.980Z,21.10
2018-12-16T22:59:43.503Z,21.10
2018-12-16T23:02:48.038Z,21.00
2018-12-16T23:05:52.570Z,21.00
2018-12-16T23:08:57.092Z,21.00
2018-12-16T23:12:01.950Z,21.00
2018-12-16T23:15:07.537Z,21.00
2018-12-16T23:18:13.106Z,21.00
2018-12-16T23:21:17.641Z,20.90
2018-12-16T23:24:23.125Z,20.90
2018-12-16T23:27:27.631Z,20.90
2018-12-16T23:30:32.103Z,20.90
2018-12-16T23:33:37.144Z,20.90
2018-12-16T23:36:42.773Z,20.90
2018-12-16T23:39:47.486Z,20.80
2018-12-16T23:42:52.043Z,20.80
2018-12-16T23:45:56.633Z,20.80
2018-12-16T23:49:01.169Z,20.80
2018-12-16T23:52:06.154Z,20.80
2018-12-16T23:55:10.873Z,20.80
2018-12-16T23:58:16.225Z,20.70
